createdAt,value
2019-01-19T00:02:52.542Z,14.03
2019-01-19T00:06:24.507Z,13.13
2019-01-19T00:09:22.510Z,14.00
2019-01-19T00:13:10.545Z,13.20
2019-01-19T00:16:10.459Z,11.70
2019-01-19T00:20:00.519Z,11.60
2019-01-19T00:23:11.808Z,12.93
2019-01-19T00:26:58.635Z,13.03
2019-01-19T00:30:19.296Z,12.73
2019-01-19T00:34:08.457Z,12.13
2019-01-19T00:37:06.110Z,11.90
2019-01-19T00:40:43.270Z,12.00
2019-01-19T00:43:35.061Z,11.87
2019-01-19T00:46:46.888Z,12.27
2019-01-19T00:49:55.332Z,11.43
2019-01-19T00:53:10.876Z,13.70
2019-01-19T00:56:22.102Z,12.30
2019-01-19T00:59:29.785Z,10.87
2019-01-19T01:02:36.403Z,12.10
2019-01-19T01:05:35.076Z,13.00
2019-01-19T01:08:45.918Z,11.37
2019-01-19T01:12:07.792Z,12.40
2019-01-19T01:15:47.227Z,11.87
2019-01-19T01:18:37.634Z,11.57
2019-01-19T01:22:12.895Z,12.00
2019-01-19T01:25:43.280Z,10.90
2019-01-19T01:29:26.917Z,11.40
2019-01-19T01:32:51.216Z,11.20
2019-01-19T01:36:30.167Z,10.80
2019-01-19T01:39:35.063Z,13.23
2019-01-19T01:42:56.070Z,12.57
2019-01-19T01:46:19.152Z,11.57
2019-01-19T01:49:30.574Z,10.20
2019-01-19T01:52:45.927Z,10.77
2019-01-19T01:55:46.047Z,11.30
2019-01-19T01:58:55.262Z,11.70
2019-01-19T02:02:36.934Z,11.03
2019-01-19T02:05:51.486Z,11.60
2019-01-19T02:09:21.844Z,10.50
2019-01-19T02:12:50.004Z,12.17
2019-01-19T02:16:07.892Z,10.77
2019-01-19T02:19:29.670Z,11.53
2019-01-19T02:23:08.476Z,11.30
2019-01-19T02:26:32.658Z,9.40
2019-01-19T02:30:07.029Z,10.83
2019-01-19T02:33:51.934Z,10.90
2019-01-19T02:37:08.352Z,10.67
2019-01-19T02:41:00.873Z,9.23
2019-01-19T02:44:25.223Z,9.83
2019-01-19T02:47:30.810Z,11.10
2019-01-19T02:50:45.398Z,9.97
2019-01-19T02:54:01.197Z,9.17
2019-01-19T02:57:37.962Z,10.33
2019-01-19T03:00:57.712Z,9.20
2019-01-19T03:04:44.006Z,9.63
2019-01-19T03:08:29.377Z,8.20
2019-01-19T03:12:10.566Z,8.83
2019-01-19T03:15:16.954Z,8.60
2019-01-19T03:18:23.479Z,9.67
2019-01-19T03:21:51.709Z,10.60
2019-01-19T03:25:26.306Z,11.20
2019-01-19T03:28:38.951Z,9.53
2019-01-19T03:32:08.936Z,11.27
2019-01-19T03:35:19.478Z,11.77
2019-01-19T03:38:35.421Z,11.47
2019-01-19T03:42:01.488Z,10.83
2019-01-19T03:45:25.338Z,12.40
2019-01-19T03:48:39.348Z,12.40
2019-01-19T03:52:07.012Z,13.20
2019-01-19T03:55:13.668Z,12.20
2019-01-19T03:58:18.695Z,13.23
2019-01-19T04:01:20.377Z,13.67
2019-01-19T04:04:27.118Z,12.73
2019-01-19T04:07:44.847Z,12.73
2019-01-19T04:10:50.403Z,13.63
2019-01-19T04:14:41.512Z,14.23
2019-01-19T04:18:10.534Z,13.43
2019-01-19T04:21:21.551Z,14.33
2019-01-19T04:24:03.081Z,16.67
2019-01-19T04:26:41.666Z,14.33
2019-01-19T04:29:13.133Z,14.97
2019-01-19T04:31:44.551Z,15.17
2019-01-19T04:34:16.271Z,13.87
2019-01-19T04:36:52.479Z,14.30
2019-01-19T04:39:23.976Z,15.13
2019-01-19T04:41:55.361Z,15.43
2019-01-19T04:44:28.455Z,13.83
2019-01-19T04:46:59.881Z,16.03
2019-01-19T04:49:33.859Z,15.20
2019-01-19T04:52:05.263Z,15.20
2019-01-19T04:54:36.719Z,14.87
2019-01-19T04:57:08.293Z,16.00
2019-01-19T04:59:42.529Z,15.50
2019-01-19T05:02:16.385Z,17.10
2019-01-19T05:04:47.849Z,15.10
2019-01-19T05:07:23.973Z,17.70
2019-01-19T05:09:53.957Z,15.27
2019-01-19T05:12:25.376Z,16.30
2019-01-19T05:14:58.315Z,14.93
2019-01-19T05:17:29.744Z,15.57
2019-01-19T05:20:01.184Z,16.27
2019-01-19T05:22:35.424Z,15.37
2019-01-19T05:25:07.671Z,14.03
2019-01-19T05:27:39.219Z,15.53
2019-01-19T05:30:21.467Z,15.40
2019-01-19T05:32:53.069Z,14.70
2019-01-19T05:35:24.498Z,15.00
2019-01-19T05:37:55.911Z,16.97
2019-01-19T05:40:28.697Z,15.83
2019-01-19T05:43:00.113Z,15.33
2019-01-19T05:45:31.558Z,14.90
2019-01-19T05:48:02.996Z,16.80
2019-01-19T05:50:34.391Z,15.93
2019-01-19T05:53:05.925Z,19.10
2019-01-19T05:55:37.363Z,17.10
2019-01-19T05:58:09.128Z,15.70
2019-01-19T06:00:40.588Z,16.80
2019-01-19T06:03:12.007Z,17.07
2019-01-19T06:05:44.616Z,17.83
2019-01-19T06:08:16.032Z,15.90
2019-01-19T06:10:47.484Z,15.87
2019-01-19T06:13:20.658Z,17.43
2019-01-19T06:15:52.100Z,17.93
2019-01-19T06:18:23.451Z,18.43
2019-01-19T06:20:54.834Z,17.13
2019-01-19T06:23:26.248Z,17.20
2019-01-19T06:25:57.711Z,18.33
2019-01-19T06:28:29.130Z,17.57
2019-01-19T06:31:00.588Z,18.63
2019-01-19T06:33:34.769Z,18.27
2019-01-19T06:36:06.337Z,18.53
2019-01-19T06:38:37.775Z,19.13
2019-01-19T06:41:09.223Z,18.40
2019-01-19T06:43:40.663Z,17.70
2019-01-19T06:46:12.116Z,17.80
2019-01-19T06:48:43.539Z,18.83
2019-01-19T06:51:15.029Z,17.40
2019-01-19T06:53:47.143Z,19.63
2019-01-19T06:56:18.618Z,20.07
2019-01-19T06:58:50.424Z,19.30
2019-01-19T07:01:21.847Z,17.17
2019-01-19T07:03:53.266Z,18.80
2019-01-19T07:06:24.842Z,18.10
2019-01-19T07:08:56.262Z,22.17
2019-01-19T07:11:27.775Z,19.10
2019-01-19T07:13:59.207Z,18.90
2019-01-19T07:16:30.648Z,18.50
2019-01-19T07:19:02.139Z,17.80
2019-01-19T07:21:33.591Z,21.50
2019-01-19T07:24:06.122Z,18.70
2019-01-19T07:26:37.548Z,19.50
2019-01-19T07:29:08.994Z,19.03
2019-01-19T07:31:40.442Z,18.67
2019-01-19T07:34:11.925Z,18.53
2019-01-19T07:36:43.278Z,17.60
2019-01-19T07:39:14.705Z,16.97
2019-01-19T07:41:46.198Z,18.00
2019-01-19T07:44:17.629Z,16.73
2019-01-19T07:46:55.941Z,17.60
2019-01-19T07:49:22.766Z,16.43
2019-01-19T07:51:54.176Z,17.77
2019-01-19T07:54:25.678Z,18.20
2019-01-19T07:56:57.143Z,19.27
2019-01-19T07:59:28.620Z,19.57
2019-01-19T08:02:00.104Z,17.63
2019-01-19T08:04:31.532Z,17.53
2019-01-19T08:07:02.996Z,18.47
2019-01-19T08:09:34.442Z,18.70
2019-01-19T08:12:06.114Z,18.47
2019-01-19T08:14:37.714Z,16.87
2019-01-19T08:17:09.484Z,18.07
2019-01-19T08:19:41.050Z,17.10
2019-01-19T08:22:14.273Z,18.60
2019-01-19T08:24:45.706Z,17.57
2019-01-19T08:27:17.190Z,16.67
2019-01-19T08:29:48.655Z,16.90
2019-01-19T08:32:21.411Z,16.87
2019-01-19T08:34:52.881Z,17.17
2019-01-19T08:37:24.622Z,17.30
2019-01-19T08:39:56.216Z,16.80
2019-01-19T08:42:27.929Z,16.40
2019-01-19T08:44:59.642Z,17.00
2019-01-19T08:47:31.100Z,17.67
2019-01-19T08:50:03.778Z,16.43
2019-01-19T08:52:35.185Z,16.83
2019-01-19T08:55:07.572Z,16.30
2019-01-19T08:57:39.024Z,17.30
2019-01-19T09:00:14.876Z,16.60
2019-01-19T09:02:46.358Z,15.80
2019-01-19T09:05:19.803Z,17.27
2019-01-19T09:07:51.268Z,18.07
2019-01-19T09:10:22.899Z,18.50
2019-01-19T09:12:54.701Z,16.50
2019-01-19T09:15:26.249Z,18.80
2019-01-19T09:17:57.737Z,16.47
2019-01-19T09:20:31.348Z,17.60
2019-01-19T09:23:08.183Z,16.47
2019-01-19T09:25:39.672Z,16.40
2019-01-19T09:28:11.138Z,16.80
2019-01-19T09:30:42.638Z,16.73
2019-01-19T09:33:14.022Z,16.97
2019-01-19T09:35:45.489Z,15.67
2019-01-19T09:38:17.442Z,17.07
2019-01-19T09:40:48.869Z,13.43
2019-01-19T09:43:23.242Z,12.83
2019-01-19T09:45:54.701Z,15.50
2019-01-19T09:48:26.157Z,15.23
2019-01-19T09:50:57.628Z,15.43
2019-01-19T09:53:29.091Z,13.47
2019-01-19T09:56:01.478Z,16.13
2019-01-19T09:58:32.962Z,14.77
2019-01-19T10:01:04.392Z,16.27
2019-01-19T10:03:35.867Z,17.70
2019-01-19T10:06:07.333Z,18.67
2019-01-19T10:08:39.122Z,16.77
2019-01-19T10:11:11.049Z,15.40
2019-01-19T10:13:42.608Z,14.70
2019-01-19T10:16:14.211Z,13.87
2019-01-19T10:18:45.831Z,15.27
2019-01-19T10:21:17.337Z,14.80
2019-01-19T10:23:48.787Z,13.83
2019-01-19T10:26:20.196Z,13.70
2019-01-19T10:28:52.196Z,14.27
2019-01-19T10:31:23.662Z,12.50
2019-01-19T10:33:55.129Z,11.97
2019-01-19T10:36:26.576Z,13.10
2019-01-19T10:38:58.073Z,12.67
2019-01-19T10:41:29.502Z,12.40
2019-01-19T10:44:00.995Z,12.03
2019-01-19T10:46:32.410Z,11.60
2019-01-19T10:49:06.923Z,11.80
2019-01-19T10:51:38.352Z,10.83
2019-01-19T10:54:09.860Z,12.30
2019-01-19T10:56:41.270Z,24.00
2019-01-19T10:59:13.253Z,12.43
2019-01-19T11:01:44.706Z,11.97
2019-01-19T11:04:17.890Z,10.53
2019-01-19T11:06:50.958Z,12.13
2019-01-19T11:09:22.510Z,12.30
2019-01-19T11:11:53.948Z,12.90
2019-01-19T11:14:25.415Z,11.10
2019-01-19T11:16:58.202Z,11.27
2019-01-19T11:19:29.660Z,10.83
2019-01-19T11:22:01.121Z,10.10
2019-01-19T11:24:32.584Z,10.50
2019-01-19T11:27:04.095Z,11.50
2019-01-19T11:29:35.611Z,11.70
2019-01-19T11:32:08.649Z,11.30
2019-01-19T11:34:40.104Z,9.60
2019-01-19T11:37:11.662Z,11.00
2019-01-19T11:39:43.082Z,10.63
2019-01-19T11:42:14.642Z,12.43
2019-01-19T11:44:46.098Z,11.37
2019-01-19T11:47:17.628Z,11.80
2019-01-19T11:49:49.169Z,10.37
2019-01-19T11:52:20.613Z,9.73
2019-01-19T11:54:52.208Z,9.50
2019-01-19T11:57:23.725Z,9.07
2019-01-19T11:59:55.316Z,10.40
2019-01-19T12:02:26.818Z,10.03
2019-01-19T12:04:58.283Z,11.30
2019-01-19T12:07:31.006Z,10.93
2019-01-19T12:10:02.488Z,10.47
2019-01-19T12:12:33.993Z,11.43
2019-01-19T12:15:06.283Z,9.97
2019-01-19T12:17:37.755Z,10.07
2019-01-19T12:20:14.763Z,9.60
2019-01-19T12:22:46.192Z,9.87
2019-01-19T12:25:19.693Z,8.97
2019-01-19T12:27:51.111Z,8.70
2019-01-19T12:30:25.786Z,8.73
2019-01-19T12:32:57.263Z,7.97
2019-01-19T12:35:28.855Z,9.37
2019-01-19T12:38:00.548Z,7.10
2019-01-19T12:40:32.267Z,8.97
2019-01-19T12:43:14.121Z,10.20
2019-01-19T12:46:10.512Z,9.50
2019-01-19T12:48:41.960Z,9.53
2019-01-19T12:51:14.829Z,10.60
2019-01-19T12:53:47.431Z,9.77
2019-01-19T12:56:18.884Z,9.33
2019-01-19T12:58:50.329Z,9.60
2019-01-19T13:01:21.762Z,9.53
2019-01-19T13:03:53.280Z,13.10
2019-01-19T13:07:00.278Z,8.27
2019-01-19T13:09:39.390Z,8.60
2019-01-19T13:12:51.388Z,9.27
2019-01-19T13:16:16.781Z,8.53
2019-01-19T13:18:59.069Z,8.63
2019-01-19T13:22:31.360Z,9.33
2019-01-19T13:25:47.170Z,9.00
2019-01-19T13:29:14.431Z,8.77
2019-01-19T13:32:24.488Z,12.70
2019-01-19T13:36:20.163Z,9.60
2019-01-19T13:39:45.623Z,7.93
2019-01-19T13:43:15.881Z,9.20
2019-01-19T13:46:00.170Z,8.50
2019-01-19T13:49:43.255Z,8.90
2019-01-19T13:52:55.672Z,8.80
2019-01-19T13:56:29.555Z,9.00
2019-01-19T13:59:49.184Z,11.27
2019-01-19T14:02:52.244Z,11.37
2019-01-19T14:06:02.727Z,9.97
2019-01-19T14:09:36.087Z,10.93
2019-01-19T14:13:25.103Z,10.80
2019-01-19T14:16:45.607Z,10.60
2019-01-19T14:19:55.823Z,10.07
2019-01-19T14:23:31.917Z,10.10
2019-01-19T14:26:53.906Z,9.50
2019-01-19T14:30:15.724Z,9.23
2019-01-19T14:33:20.311Z,9.40
2019-01-19T14:36:49.799Z,13.37
2019-01-19T14:40:33.202Z,15.53
2019-01-19T14:43:53.147Z,15.17
2019-01-19T14:47:02.013Z,15.40
2019-01-19T14:50:51.706Z,17.50
2019-01-19T14:54:00.288Z,14.67
2019-01-19T14:57:05.539Z,15.93
2019-01-19T15:00:39.254Z,15.17
2019-01-19T15:04:02.835Z,15.47
2019-01-19T15:07:22.904Z,16.70
2019-01-19T15:10:50.304Z,14.70
2019-01-19T15:14:00.299Z,15.77
2019-01-19T15:17:26.128Z,15.37
2019-01-19T15:20:47.593Z,15.60
2019-01-19T15:23:44.898Z,16.33
2019-01-19T15:27:23.779Z,17.40
2019-01-19T15:30:58.636Z,18.30
2019-01-19T15:34:30.500Z,17.50
2019-01-19T15:37:54.754Z,13.73
2019-01-19T15:41:15.162Z,12.53
2019-01-19T15:44:44.839Z,13.23
2019-01-19T15:47:40.261Z,11.73
2019-01-19T15:51:02.946Z,13.07
2019-01-19T15:53:43.023Z,12.07
2019-01-19T15:57:41.292Z,13.93
2019-01-19T16:01:07.461Z,14.07
2019-01-19T16:04:16.742Z,12.40
2019-01-19T16:07:49.179Z,13.77
2019-01-19T16:11:32.897Z,14.80
2019-01-19T16:15:23.142Z,13.97
2019-01-19T16:18:29.922Z,15.33
2019-01-19T16:22:06.382Z,17.10
2019-01-19T16:25:34.292Z,14.50
2019-01-19T16:29:00.715Z,13.50
2019-01-19T16:32:19.099Z,14.90
2019-01-19T16:35:49.844Z,15.47
2019-01-19T16:39:25.642Z,17.70
2019-01-19T16:42:33.175Z,14.10
2019-01-19T16:45:32.663Z,15.30
2019-01-19T16:48:19.045Z,16.20
2019-01-19T16:51:46.035Z,31.40
2019-01-19T16:54:40.515Z,27.80
2019-01-19T16:58:22.343Z,26.67
2019-01-19T17:01:48.689Z,16.00
2019-01-19T17:05:24.686Z,18.17
2019-01-19T17:08:32.884Z,13.60
2019-01-19T17:11:57.650Z,18.37
2019-01-19T17:15:36.423Z,12.37
2019-01-19T17:19:04.513Z,11.90
2019-01-19T17:22:38.572Z,12.10
2019-01-19T17:26:14.868Z,11.83
2019-01-19T17:29:19.139Z,11.87
2019-01-19T17:32:37.192Z,12.10
2019-01-19T17:35:56.346Z,20.57
2019-01-19T17:39:13.887Z,11.83
2019-01-19T17:43:06.347Z,18.47
2019-01-19T17:46:31.731Z,11.90
2019-01-19T17:49:51.350Z,14.00
2019-01-19T17:53:41.095Z,13.47
2019-01-19T17:57:04.118Z,12.80
2019-01-19T18:00:27.025Z,13.60
2019-01-19T18:03:33.379Z,12.53
2019-01-19T18:06:45.233Z,14.53
2019-01-19T18:10:15.004Z,18.70
2019-01-19T18:13:34.419Z,15.40
2019-01-19T18:17:25.772Z,16.57
2019-01-19T18:20:45.126Z,14.40
2019-01-19T18:24:40.589Z,14.83
2019-01-19T18:28:09.386Z,14.63
2019-01-19T18:31:31.764Z,15.57
2019-01-19T18:34:29.130Z,19.73
2019-01-19T18:37:30.527Z,13.27
2019-01-19T18:40:48.940Z,15.20
2019-01-19T18:43:52.112Z,22.70
2019-01-19T18:47:28.709Z,26.93
2019-01-19T18:51:26.913Z,15.90
2019-01-19T18:54:34.232Z,20.73
2019-01-19T18:58:25.215Z,16.77
2019-01-19T19:01:46.127Z,15.00
2019-01-19T19:05:22.209Z,15.70
2019-01-19T19:08:35.789Z,16.10
2019-01-19T19:11:46.034Z,16.63
2019-01-19T19:14:48.013Z,16.97
2019-01-19T19:18:22.775Z,17.40
2019-01-19T19:21:43.562Z,20.23
2019-01-19T19:25:32.802Z,18.33
2019-01-19T19:28:49.473Z,18.43
2019-01-19T19:32:20.022Z,19.23
2019-01-19T19:35:23.254Z,20.23
2019-01-19T19:38:45.456Z,20.70
2019-01-19T19:42:20.366Z,23.77
2019-01-19T19:45:36.193Z,23.10
2019-01-19T19:48:43.597Z,22.07
2019-01-19T19:52:03.820Z,21.27
2019-01-19T19:54:36.449Z,20.97
2019-01-19T19:57:07.983Z,23.13
2019-01-19T19:59:39.584Z,21.07
2019-01-19T20:02:11.304Z,22.17
2019-01-19T20:04:42.916Z,20.60
2019-01-19T20:07:14.935Z,22.40
2019-01-19T20:09:46.658Z,22.77
2019-01-19T20:12:18.195Z,21.50
2019-01-19T20:14:49.707Z,21.07
2019-01-19T20:17:21.372Z,20.90
2019-01-19T20:19:53.057Z,20.57
2019-01-19T20:22:24.563Z,21.13
2019-01-19T20:24:56.140Z,23.10
2019-01-19T20:27:27.584Z,22.40
2019-01-19T20:29:59.085Z,23.53
2019-01-19T20:32:30.645Z,23.77
2019-01-19T20:35:02.191Z,23.07
2019-01-19T20:37:33.758Z,22.93
2019-01-19T20:40:06.274Z,23.77
2019-01-19T20:42:37.742Z,25.53
2019-01-19T20:45:11.347Z,27.37
2019-01-19T20:47:42.877Z,27.30
2019-01-19T20:50:14.617Z,26.00
2019-01-19T20:52:46.169Z,24.33
2019-01-19T20:55:17.646Z,24.90
2019-01-19T20:57:49.025Z,25.20
2019-01-19T21:00:20.660Z,25.60
2019-01-19T21:02:53.446Z,24.93
2019-01-19T21:05:24.915Z,23.70
2019-01-19T21:07:56.505Z,25.70
2019-01-19T21:10:31.851Z,25.07
2019-01-19T21:13:01.272Z,27.10
2019-01-19T21:15:33.839Z,27.33
2019-01-19T21:18:05.372Z,27.30
2019-01-19T21:20:37.911Z,27.90
2019-01-19T21:23:09.373Z,27.90
2019-01-19T21:25:40.914Z,28.47
2019-01-19T21:28:12.342Z,28.60
2019-01-19T21:30:43.928Z,28.57
2019-01-19T21:33:15.371Z,28.27
2019-01-19T21:35:46.841Z,26.07
2019-01-19T21:38:20.720Z,28.00
2019-01-19T21:40:52.184Z,26.40
2019-01-19T21:43:23.647Z,25.53
2019-01-19T21:45:55.117Z,26.50
2019-01-19T21:48:26.575Z,25.83
2019-01-19T21:50:58.050Z,26.97
2019-01-19T21:53:31.012Z,25.00
2019-01-19T21:56:02.461Z,26.80
2019-01-19T21:58:33.927Z,26.40
2019-01-19T22:01:05.394Z,29.17
2019-01-19T22:03:42.913Z,28.50
2019-01-19T22:06:14.580Z,32.73
2019-01-19T22:08:46.022Z,27.87
2019-01-19T22:11:17.503Z,24.20
2019-01-19T22:13:50.554Z,25.57
2019-01-19T22:16:22.095Z,23.13
2019-01-19T22:18:53.571Z,24.23
2019-01-19T22:21:26.334Z,23.47
2019-01-19T22:23:57.752Z,23.00
2019-01-19T22:26:29.586Z,22.73
2019-01-19T22:29:01.025Z,23.77
2019-01-19T22:31:32.516Z,23.70
2019-01-19T22:34:03.934Z,23.60
2019-01-19T22:36:35.394Z,23.80
2019-01-19T22:39:08.951Z,23.80
2019-01-19T22:41:40.415Z,21.80
2019-01-19T22:44:11.848Z,20.17
2019-01-19T22:46:43.290Z,21.63
2019-01-19T22:49:14.761Z,23.00
2019-01-19T22:51:47.057Z,24.47
2019-01-19T22:54:18.530Z,24.63
2019-01-19T22:56:49.980Z,24.27
2019-01-19T22:59:21.399Z,23.77
2019-01-19T23:02:10.784Z,22.50
2019-01-19T23:04:42.298Z,23.37
2019-01-19T23:07:13.828Z,24.70
2019-01-19T23:09:45.277Z,26.10
2019-01-19T23:12:16.774Z,23.60
2019-01-19T23:14:48.574Z,24.47
2019-01-19T23:17:20.115Z,21.90
2019-01-19T23:19:51.566Z,21.40
2019-01-19T23:22:24.300Z,20.87
2019-01-19T23:24:56.021Z,20.20
2019-01-19T23:27:27.473Z,21.37
2019-01-19T23:29:58.907Z,20.40
2019-01-19T23:32:30.395Z,19.03
2019-01-19T23:35:01.838Z,20.43
2019-01-19T23:37:33.284Z,18.80
2019-01-19T23:40:05.325Z,19.37
2019-01-19T23:42:36.858Z,17.47
2019-01-19T23:45:08.406Z,17.90
2019-01-19T23:47:39.962Z,20.40
2019-01-19T23:50:12.589Z,17.40
2019-01-19T23:52:45.360Z,17.70
2019-01-19T23:55:19.058Z,16.10
2019-01-19T23:57:51.031Z,16.50
